Time;durP1;ratioP1;P1;durP2;ratioP2;P2;SDS_P1;SDS_P2;PMS_P1;PMS_P2;Temp;Humidity;BMP_temperature;BMP_pressure;BME280_temperature;BME280_humidity;BME280_pressure;Samples;Min_cycle;Max_cycle;Signal;HPM_P1;HPM_P2
2023/07/03 00:08:25;;;;;;;48.80;38.10;;;16.60;99.90;;;;;;21035176;28;20551;-46
2023/07/03 00:18:28;;;;;;;46.17;36.05;;;16.60;99.90;;;;;;21037749;28;20508;-49
2023/07/03 00:28:30;;;;;;;48.97;37.72;;;16.70;99.90;;;;;;21042798;28;20119;-45
2023/07/03 00:38:32;;;;;;;49.97;38.38;;;16.70;99.90;;;;;;20997110;28;20117;-49
2023/07/03 00:48:35;;;;;;;44.22;34.80;;;16.70;99.90;;;;;;21028344;28;20076;-43
2023/07/03 00:58:36;;;;;;;42.25;34.83;;;16.70;99.90;;;;;;21047923;28;20064;-47
2023/07/03 01:08:39;;;;;;;48.20;36.17;;;16.60;99.90;;;;;;21032600;28;20074;-47
2023/07/03 01:18:42;;;;;;;45.97;35.03;;;16.60;99.90;;;;;;21055629;28;20079;-49
2023/07/03 01:28:46;;;;;;;45.13;34.63;;;16.50;99.90;;;;;;21034607;28;20107;-46
2023/07/03 01:38:49;;;;;;;48.55;36.88;;;16.50;99.90;;;;;;21035451;28;20063;-46
2023/07/03 01:48:51;;;;;;;53.13;37.70;;;16.50;99.90;;;;;;21036566;28;20143;-50
2023/07/03 01:59:06;;;;;;;48.17;35.90;;;16.40;99.90;;;;;;21005834;28;20118;-47
2023/07/03 02:09:09;;;;;;;44.97;34.45;;;16.40;99.90;;;;;;20999617;28;20094;-48
2023/07/03 02:19:15;;;;;;;54.88;39.28;;;16.30;99.90;;;;;;21004200;28;20145;-49
2023/07/03 02:29:17;;;;;;;44.42;34.17;;;16.30;99.90;;;;;;21004382;28;20133;-43
2023/07/03 02:39:21;;;;;;;43.50;33.95;;;16.20;99.90;;;;;;20988199;28;20068;-49
2023/07/03 02:49:28;;;;;;;52.75;37.30;;;16.10;99.90;;;;;;21004005;28;20114;-47
2023/07/03 02:59:32;;;;;;;50.55;36.10;;;15.90;99.90;;;;;;21009149;28;20075;-47
2023/07/03 03:09:34;;;;;;;50.20;37.08;;;16.00;99.90;;;;;;21005314;28;20063;-47
2023/07/03 03:19:36;;;;;;;45.58;34.30;;;16.00;99.90;;;;;;21022022;28;20074;-48
2023/07/03 03:29:38;;;;;;;46.42;34.00;;;16.10;99.90;;;;;;21003866;28;20059;-44
2023/07/03 03:39:40;;;;;;;48.40;34.70;;;16.10;99.90;;;;;;21020649;28;20059;-44
2023/07/03 03:49:44;;;;;;;46.22;32.25;;;16.10;99.90;;;;;;20984690;28;20091;-49
2023/07/03 03:59:45;;;;;;;37.80;31.05;;;16.20;99.90;;;;;;20992319;28;20445;-44
2023/07/03 04:09:47;;;;;;;43.38;33.88;;;16.30;99.90;;;;;;20980177;28;20068;-49
2023/07/03 04:19:49;;;;;;;47.38;36.30;;;16.20;99.90;;;;;;21010193;28;20055;-46
2023/07/03 04:29:50;;;;;;;38.33;31.45;;;16.20;99.90;;;;;;21004892;28;20064;-54
2023/07/03 04:39:53;;;;;;;41.13;31.88;;;16.20;99.90;;;;;;21043382;28;20067;-50
2023/07/03 04:49:58;;;;;;;46.40;34.60;;;16.30;99.90;;;;;;21034618;28;20064;-49
2023/07/03 05:00:00;;;;;;;42.33;31.52;;;16.30;99.90;;;;;;21047391;28;20453;-51
2023/07/03 05:10:02;;;;;;;39.10;29.05;;;16.30;99.90;;;;;;21041339;28;20063;-46
2023/07/03 05:20:14;;;;;;;34.22;26.98;;;16.60;99.90;;;;;;21013277;28;20063;-50
2023/07/03 05:30:16;;;;;;;28.20;23.13;;;17.30;99.90;;;;;;21012960;28;20071;-53
2023/07/03 05:40:18;;;;;;;26.55;22.45;;;17.80;99.90;;;;;;21036503;28;20446;-53
2023/07/03 05:50:20;;;;;;;26.10;20.95;;;18.00;99.90;;;;;;21021852;28;20083;-43
2023/07/03 06:00:23;;;;;;;22.83;19.90;;;18.20;99.90;;;;;;21023985;28;20394;-48
2023/07/03 06:10:27;;;;;;;25.88;21.48;;;18.50;99.90;;;;;;21004767;28;20052;-45
2023/07/03 06:20:30;;;;;;;20.10;18.00;;;18.80;99.90;;;;;;21034780;28;20060;-44
2023/07/03 06:30:31;;;;;;;21.00;18.40;;;19.60;99.90;;;;;;21036786;28;20547;-48
2023/07/03 06:40:33;;;;;;;18.85;16.90;;;20.20;99.90;;;;;;20982778;28;20182;-52
2023/07/03 06:50:35;;;;;;;20.20;17.17;;;19.80;99.90;;;;;;21012699;28;20127;-48
2023/07/03 07:00:37;;;;;;;20.58;17.65;;;19.40;99.90;;;;;;20995413;28;20102;-49
2023/07/03 07:10:39;;;;;;;22.10;19.75;;;19.30;99.90;;;;;;20990371;28;20170;-55
2023/07/03 07:20:41;;;;;;;22.80;19.48;;;19.10;99.90;;;;;;21008848;28;20051;-48
2023/07/03 07:30:43;;;;;;;26.45;22.30;;;18.90;99.90;;;;;;21018790;28;20086;-49
2023/07/03 07:40:45;;;;;;;27.38;24.45;;;18.50;99.90;;;;;;21003776;28;20076;-51
2023/07/03 07:50:46;;;;;;;26.98;23.65;;;19.00;99.90;;;;;;21019685;28;20178;-53
2023/07/03 08:00:53;;;;;;;29.00;25.95;;;19.50;99.90;;;;;;21028711;28;20149;-48
2023/07/03 08:10:57;;;;;;;41.92;33.33;;;19.00;99.90;;;;;;21023511;28;20458;-49
2023/07/03 08:20:58;;;;;;;36.58;32.33;;;18.60;99.90;;;;;;21022710;28;20059;-48
2023/07/03 08:31:00;;;;;;;46.42;34.25;;;18.50;99.90;;;;;;20991592;28;20131;-52
2023/07/03 08:41:02;;;;;;;82.63;32.25;;;19.30;99.90;;;;;;21015423;28;20102;-48
2023/07/03 08:51:07;;;;;;;226.35;43.53;;;19.40;99.90;;;;;;21011760;28;20094;-48
2023/07/03 09:01:26;;;;;;;44.83;32.80;;;19.00;99.90;;;;;;20996709;28;20055;-48
2023/07/03 09:11:34;;;;;;;102.80;36.45;;;19.00;99.90;;;;;;21003029;28;20064;-49
2023/07/03 09:21:37;;;;;;;285.00;34.83;;;18.80;99.90;;;;;;21024776;28;20130;-44
2023/07/03 09:31:39;;;;;;;46.28;35.08;;;18.90;99.90;;;;;;21050906;28;20070;-45
2023/07/03 09:41:41;;;;;;;41.30;34.10;;;18.80;99.90;;;;;;21032862;28;20075;-51
2023/07/03 09:51:48;;;;;;;33.67;30.02;;;18.50;99.90;;;;;;21024014;28;20060;-50
2023/07/03 10:01:57;;;;;;;36.97;32.85;;;19.00;99.90;;;;;;21000828;28;20064;-54
2023/07/03 10:12:25;;;;;;;;;;;19.20;99.90;;;;;;21007417;28;20610;-46
2023/07/03 10:22:27;;;;;;;29.60;25.67;;;18.80;99.90;;;;;;21001376;28;19940;-47
2023/07/03 10:32:33;;;;;;;29.42;26.33;;;20.70;99.90;;;;;;21001732;28;20094;-54
2023/07/03 10:42:45;;;;;;;30.88;27.42;;;21.20;99.90;;;;;;21007074;28;20071;-43
2023/07/03 10:52:49;;;;;;;28.30;25.25;;;20.50;99.90;;;;;;21022346;28;20122;-52
2023/07/03 11:03:01;;;;;;;27.48;24.88;;;22.80;99.90;;;;;;21025703;28;20134;-49
2023/07/03 11:13:06;;;;;;;24.45;22.05;;;23.20;99.90;;;;;;21015246;28;20064;-43
2023/07/03 11:23:11;;;;;;;28.15;25.45;;;24.40;99.90;;;;;;21014576;28;20060;-51
2023/07/03 11:33:14;;;;;;;29.63;26.63;;;22.80;99.90;;;;;;21014054;28;20059;-52
2023/07/03 11:43:23;;;;;;;36.30;32.38;;;21.20;99.90;;;;;;20995236;28;20454;-49
2023/07/03 11:53:36;;;;;;;35.72;31.92;;;20.60;99.90;;;;;;21007247;28;20502;-54
2023/07/03 12:03:49;;;;;;;25.40;22.75;;;19.90;99.90;;;;;;21000316;28;20115;-51
2023/07/03 12:13:52;;;;;;;23.40;21.08;;;20.60;99.90;;;;;;21021894;28;20121;-54
2023/07/03 12:23:54;;;;;;;18.30;16.40;;;22.00;99.90;;;;;;21030017;28;20094;-51
2023/07/03 12:33:58;;;;;;;17.08;15.38;;;23.80;99.90;;;;;;21016072;28;20492;-52
2023/07/03 12:44:01;;;;;;;21.58;19.35;;;22.60;99.90;;;;;;21023509;28;20071;-50
2023/07/03 12:54:03;;;;;;;19.55;17.65;;;21.50;99.90;;;;;;21037244;28;20208;-50
2023/07/03 13:04:05;;;;;;;21.48;19.38;;;20.80;99.90;;;;;;21014537;28;20121;-50
2023/07/03 13:14:09;;;;;;;22.88;20.58;;;19.90;99.90;;;;;;20993747;28;20075;-49
2023/07/03 13:24:14;;;;;;;22.00;19.77;;;19.30;99.90;;;;;;21005499;28;20109;-54
2023/07/03 13:34:20;;;;;;;26.08;23.42;;;19.00;99.90;;;;;;21020984;28;20063;-49
2023/07/03 13:44:23;;;;;;;27.40;24.08;;;18.60;99.90;;;;;;21033093;28;20105;-51
2023/07/03 13:54:24;;;;;;;62.90;26.70;;;18.20;99.90;;;;;;21036063;28;20105;-50
2023/07/03 14:04:26;;;;;;;64.25;29.58;;;18.20;99.90;;;;;;21021943;28;20078;-53
2023/07/03 14:14:28;;;;;;;93.35;31.52;;;17.90;99.90;;;;;;21005733;28;20127;-50
2023/07/03 14:24:29;;;;;;;28.65;25.40;;;17.90;99.90;;;;;;21052874;28;20052;-54
2023/07/03 14:34:31;;;;;;;27.58;24.67;;;18.50;99.90;;;;;;21001308;28;20584;-49
2023/07/03 14:44:33;;;;;;;21.42;19.15;;;20.60;99.90;;;;;;21016471;28;20075;-54
2023/07/03 14:54:34;;;;;;;15.23;13.55;;;23.30;99.90;;;;;;21016119;28;20068;-52
2023/07/03 15:04:36;;;;;;;15.23;13.68;;;22.90;99.90;;;;;;21022368;28;20542;-53
2023/07/03 15:14:39;;;;;;;14.05;11.90;;;23.50;99.90;;;;;;21009386;28;20060;-45
2023/07/03 15:24:42;;;;;;;9.73;8.60;;;23.80;99.90;;;;;;21031626;28;20059;-56
2023/07/03 15:34:51;;;;;;;11.63;10.43;;;24.90;99.90;;;;;;21003085;28;20067;-56
2023/07/03 15:44:57;;;;;;;11.63;10.57;;;23.90;99.90;;;;;;21005926;28;20076;-53
2023/07/03 15:54:59;;;;;;;17.15;15.45;;;24.10;99.90;;;;;;21041873;28;20153;-53
2023/07/03 16:05:00;;;;;;;21.67;19.48;;;22.50;99.90;;;;;;20994823;28;20133;-49
2023/07/03 16:15:02;;;;;;;23.60;21.08;;;20.50;99.90;;;;;;20995533;28;20067;-51
2023/07/03 16:25:06;;;;;;;19.48;17.45;;;19.40;99.90;;;;;;20999335;28;20474;-51
2023/07/03 16:35:07;;;;;;;20.90;18.67;;;19.40;99.90;;;;;;20990609;28;20068;-51
2023/07/03 16:45:10;;;;;;;21.75;19.48;;;19.40;99.90;;;;;;21021547;28;20072;-50
2023/07/03 16:55:11;;;;;;;21.17;18.98;;;19.30;99.90;;;;;;21039583;28;20064;-49
2023/07/03 17:05:13;;;;;;;20.92;18.50;;;19.20;99.90;;;;;;21038216;28;20101;-53
2023/07/03 17:15:15;;;;;;;27.10;24.27;;;19.20;99.90;;;;;;21040831;28;20064;-49
2023/07/03 17:25:16;;;;;;;26.13;22.35;;;18.90;99.90;;;;;;21036016;28;20058;-50
2023/07/03 17:35:18;;;;;;;61.17;32.75;;;18.40;99.90;;;;;;21006832;28;20120;-53
2023/07/03 17:45:19;;;;;;;33.40;29.45;;;18.10;99.90;;;;;;20999441;28;20083;-50
2023/07/03 17:55:21;;;;;;;45.25;34.22;;;17.70;99.90;;;;;;21035428;28;20064;-48
2023/07/03 18:05:23;;;;;;;132.88;35.80;;;17.50;99.90;;;;;;20997939;28;20059;-50
2023/07/03 18:15:25;;;;;;;41.35;34.55;;;17.40;99.90;;;;;;21008026;28;20156;-50
2023/07/03 18:25:27;;;;;;;47.75;34.58;;;17.30;99.90;;;;;;21018748;28;20072;-49
2023/07/03 18:35:35;;;;;;;35.75;30.35;;;17.20;99.90;;;;;;21017903;28;20102;-48
2023/07/03 18:45:36;;;;;;;38.20;32.45;;;17.20;99.90;;;;;;20996323;28;20495;-49
2023/07/03 18:55:46;;;;;;;35.30;29.17;;;17.00;99.90;;;;;;21006123;28;20080;-50
2023/07/03 19:05:56;;;;;;;42.22;32.63;;;17.00;99.90;;;;;;20992730;28;20123;-50
2023/07/03 19:15:57;;;;;;;46.00;33.40;;;16.90;99.90;;;;;;20980963;28;20123;-48
2023/07/03 19:25:59;;;;;;;51.47;34.50;;;16.80;99.90;;;;;;21014700;28;20064;-46
2023/07/03 19:36:00;;;;;;;38.35;31.33;;;16.70;99.90;;;;;;20986762;28;20064;-49
2023/07/03 19:46:02;;;;;;;40.42;29.45;;;16.60;99.90;;;;;;21026536;28;20578;-50
2023/07/03 19:56:04;;;;;;;35.03;28.08;;;16.60;99.90;;;;;;21018987;28;20118;-51
2023/07/03 20:06:20;;;;;;;37.50;29.08;;;16.50;99.90;;;;;;21020244;28;20067;-45
2023/07/03 20:16:22;;;;;;;28.92;23.90;;;16.40;99.90;;;;;;21027878;28;20224;-46
2023/07/03 20:26:26;;;;;;;28.70;23.92;;;16.40;99.90;;;;;;21036904;28;20452;-44
2023/07/03 20:36:28;;;;;;;29.17;24.13;;;16.30;99.90;;;;;;20990753;28;20098;-49
2023/07/03 20:46:31;;;;;;;36.50;28.27;;;16.40;99.90;;;;;;21005971;28;20075;-52
2023/07/03 20:56:38;;;;;;;32.78;26.38;;;16.30;99.90;;;;;;21007005;28;20121;-44
2023/07/03 21:06:40;;;;;;;32.85;26.98;;;16.30;99.90;;;;;;21014345;28;20066;-51
2023/07/03 21:16:41;;;;;;;34.65;28.98;;;16.40;99.90;;;;;;21013790;28;20143;-51
2023/07/03 21:26:43;;;;;;;25.45;20.45;;;16.50;99.90;;;;;;21032844;28;20093;-47
2023/07/03 21:36:44;;;;;;;7.50;6.25;;;16.30;99.90;;;;;;21031024;28;20071;-43
2023/07/03 21:46:46;;;;;;;12.40;7.22;;;14.90;99.90;;;;;;21032583;28;20493;-52
2023/07/03 21:56:48;;;;;;;13.15;5.45;;;14.00;99.90;;;;;;21019421;28;20746;-45
2023/07/03 22:06:51;;;;;;;2.65;0.90;;;13.70;99.90;;;;;;21035236;28;20071;-47
2023/07/03 22:16:56;;;;;;;1.02;0.40;;;13.50;99.90;;;;;;21001444;28;20076;-51
2023/07/03 22:26:57;;;;;;;2.10;0.55;;;13.10;99.90;;;;;;21003014;28;20094;-48
2023/07/03 22:37:00;;;;;;;1.38;0.60;;;12.90;99.90;;;;;;21000999;28;20079;-46
2023/07/03 22:47:13;;;;;;;3.65;0.70;;;12.60;99.90;;;;;;21023065;28;20076;-47
2023/07/03 22:57:17;;;;;;;2.55;0.70;;;12.50;99.90;;;;;;21002115;28;20477;-45
2023/07/03 23:07:21;;;;;;;1.92;0.75;;;12.70;99.90;;;;;;20975632;28;20214;-46
2023/07/03 23:17:27;;;;;;;2.95;1.25;;;13.00;99.90;;;;;;21006664;28;20129;-45
2023/07/03 23:27:29;;;;;;;1.27;0.85;;;12.70;99.90;;;;;;20996199;28;20123;-46
2023/07/03 23:37:31;;;;;;;1.75;1.02;;;12.80;99.90;;;;;;21004170;28;20076;-49
2023/07/03 23:47:33;;;;;;;2.53;1.10;;;12.50;99.90;;;;;;21008185;28;20190;-50
2023/07/03 23:57:35;;;;;;;2.40;1.90;;;12.40;99.90;;;;;;21017990;28;20086;-48
